Time;durP1;ratioP1;P1;durP2;ratioP2;P2;SDS_P1;SDS_P2;PMS_P1;PMS_P2;Temp;Humidity;BMP_temperature;BMP_pressure;BME280_temperature;BME280_humidity;BME280_pressure;Samples;Min_cycle;Max_cycle;Signal;HPM_P1;HPM_P2
2023/11/02 00:00:36;;;;;;;3.33;2.50;;;;;;;11.75;100.00;100412.34;5055257;28;20040;-75
2023/11/02 00:03:02;;;;;;;1.80;1.70;;;;;;;11.81;100.00;100431.59;5008867;28;20037;-75
2023/11/02 00:05:53;;;;;;;0.85;0.63;;;;;;;11.80;100.00;100429.00;5029314;28;20022;-75
2023/11/02 00:08:24;;;;;;;1.30;0.57;;;;;;;11.11;100.00;100327.69;5033721;28;20449;-76
2023/11/02 00:10:50;;;;;;;0.82;0.80;;;;;;;11.07;100.00;100339.06;5041377;28;20040;-76
2023/11/02 00:17:10;;;;;;;0.77;0.70;;;;;;;10.86;100.00;100425.75;5028887;28;20464;-76
2023/11/02 00:20:26;;;;;;;0.60;0.60;;;;;;;11.12;100.00;100421.34;5019747;28;20084;-76
2023/11/02 00:22:53;;;;;;;0.30;0.30;;;;;;;10.29;100.00;100333.97;5023732;28;20042;-77
2023/11/02 00:25:55;;;;;;;3.28;2.58;;;;;;;10.69;100.00;100436.25;5051517;28;20128;-75
2023/11/02 00:35:04;;;;;;;0.20;0.20;;;;;;;9.98;100.00;100326.06;5025736;28;20393;-76
2023/11/02 00:37:30;;;;;;;3.40;1.50;;;;;;;10.35;100.00;100405.66;5031943;28;20052;-76
2023/11/02 00:39:55;;;;;;;0.20;0.20;;;;;;;10.19;100.00;100423.97;5029894;28;20389;-77
2023/11/02 00:42:23;;;;;;;3.42;1.55;;;;;;;10.23;100.00;100399.47;5032732;28;20056;-76
2023/11/02 00:44:48;;;;;;;2.15;0.88;;;;;;;10.06;100.00;100399.44;5021283;28;20026;-76
2023/11/02 00:47:18;;;;;;;0.20;0.20;;;;;;;9.70;100.00;100344.34;5028392;28;20049;-75
2023/11/02 00:49:50;;;;;;;2.38;1.20;;;;;;;9.32;100.00;100299.72;5022959;28;20079;-74
2023/11/02 00:52:18;;;;;;;1.52;1.00;;;;;;;9.49;100.00;100344.28;5008455;28;20038;-74
2023/11/02 00:54:44;;;;;;;2.20;2.10;;;;;;;9.66;100.00;100429.03;5028418;28;20095;-77
2023/11/02 00:57:11;;;;;;;0.38;0.38;;;;;;;8.97;100.00;100321.38;5026723;28;20029;-75
2023/11/02 00:59:38;;;;;;;0.68;0.68;;;;;;;9.34;100.00;100394.88;5028849;28;20037;-76
2023/11/02 01:02:05;;;;;;;2.35;2.00;;;;;;;8.85;100.00;100313.47;5028623;28;20045;-76
2023/11/02 01:04:43;;;;;;;2.97;1.55;;;;;;;9.80;100.00;100434.34;5039280;28;20037;-75
2023/11/02 01:07:14;;;;;;;1.00;0.82;;;;;;;9.81;100.00;100402.03;5002078;28;20046;-75
2023/11/02 01:09:45;;;;;;;1.75;1.65;;;;;;;10.28;100.00;100442.34;4994797;28;21470;-75
2023/11/02 01:12:21;;;;;;;2.65;2.40;;;;;;;10.06;100.00;100413.44;5029795;28;20053;-77
2023/11/02 01:15:33;;;;;;;1.15;1.05;;;;;;;9.52;100.00;100423.75;5033521;28;20052;-78
2023/11/02 01:17:59;;;;;;;0.30;0.30;;;;;;;9.59;100.00;100397.56;5030091;28;20049;-76
2023/11/02 01:20:43;;;;;;;0.60;0.60;;;;;;;9.65;100.00;100429.06;5030472;28;20036;-76
2023/11/02 01:27:11;;;;;;;2.40;1.60;;;;;;;9.59;100.00;100437.75;5034362;28;20072;-80
2023/11/02 01:29:43;;;;;;;1.67;1.58;;;;;;;8.62;100.00;100318.56;5030112;28;20044;-78
2023/11/02 01:35:39;;;;;;;0.63;0.60;;;;;;;8.92;100.00;100419.03;5034264;28;20036;-80
2023/11/02 01:38:06;;;;;;;0.20;0.20;;;;;;;8.98;100.00;100417.34;5028800;28;20048;-80
2023/11/02 01:40:51;;;;;;;1.65;1.55;;;;;;;8.57;100.00;100365.63;5033162;28;20041;-78
2023/11/02 01:43:26;;;;;;;1.65;1.55;;;;;;;8.87;100.00;100424.22;5030176;28;20373;-77
2023/11/02 01:45:53;;;;;;;0.45;0.45;;;;;;;8.53;100.00;100384.75;5004565;28;20397;-77
2023/11/02 01:52:17;;;;;;;0.95;0.82;;;;;;;8.77;100.00;100428.53;5026263;28;20543;-78
2023/11/02 01:54:50;;;;;;;0.30;0.30;;;;;;;8.67;100.00;100429.34;5008617;28;20045;-78
2023/11/02 01:57:45;;;;;;;0.40;0.40;;;;;;;8.73;100.00;100420.66;5030899;28;20038;-76
2023/11/02 02:00:42;;;;;;;4.03;3.83;;;;;;;8.64;100.00;100406.66;5029184;28;20021;-80
2023/11/02 02:06:57;;;;;;;0.30;0.30;;;;;;;8.62;100.00;100407.50;5031459;28;20113;-77
2023/11/02 02:13:22;;;;;;;0.57;0.55;;;;;;;8.64;100.00;100411.88;5028642;28;20049;-75
2023/11/02 02:16:34;;;;;;;2.92;2.45;;;;;;;8.42;100.00;100391.63;5013472;28;20050;-75
2023/11/02 02:22:58;;;;;;;0.30;0.30;;;;;;;8.57;100.00;100406.56;5029364;28;20444;-77
2023/11/02 02:25:50;;;;;;;0.30;0.30;;;;;;;8.46;100.00;100411.72;5032917;28;20052;-76
2023/11/02 02:28:43;;;;;;;60.22;39.28;;;;;;;8.54;100.00;100415.25;5030796;28;20080;-75
2023/11/02 02:31:49;;;;;;;0.33;0.33;;;;;;;8.43;100.00;100401.25;5027754;28;20128;-76
2023/11/02 02:34:33;;;;;;;0.30;0.30;;;;;;;8.43;100.00;100407.34;4997945;28;20463;-77
2023/11/02 02:40:32;;;;;;;2.13;1.52;;;;;;;8.54;100.00;100378.66;5023893;28;20048;-77
2023/11/02 02:43:01;;;;;;;0.40;0.40;;;;;;;8.44;100.00;100359.41;5023702;28;20041;-76
2023/11/02 02:45:29;;;;;;;0.20;0.20;;;;;;;7.82;100.00;100256.09;5020325;28;20041;-76
2023/11/02 02:47:59;;;;;;;0.32;0.32;;;;;;;8.58;100.00;100359.50;5001924;28;20053;-77
2023/11/02 02:50:31;;;;;;;0.25;0.25;;;;;;;8.33;100.00;100324.41;5019237;28;20040;-76
2023/11/02 02:53:01;;;;;;;0.47;0.47;;;;;;;8.64;100.00;100366.53;5026622;28;20044;-75
2023/11/02 02:55:31;;;;;;;0.30;0.30;;;;;;;8.55;100.00;100325.50;5007805;28;20049;-76
2023/11/02 02:57:59;;;;;;;0.30;0.30;;;;;;;8.12;100.00;100285.06;5028589;28;20053;-77
2023/11/02 03:00:27;;;;;;;0.30;0.30;;;;;;;8.74;100.00;100375.31;5025974;28;20045;-77
2023/11/02 03:03:26;;;;;;;0.30;0.30;;;;;;;8.60;100.00;100383.06;5029557;28;20026;-77
2023/11/02 03:05:55;;;;;;;0.40;0.40;;;;;;;8.45;100.00;100352.44;5027094;28;20390;-77
2023/11/02 03:08:23;;;;;;;0.20;0.20;;;;;;;8.43;100.00;100341.13;5021970;28;20018;-75
2023/11/02 03:10:50;;;;;;;0.30;0.30;;;;;;;8.57;100.00;100365.63;5018886;28;20044;-76
2023/11/02 03:13:17;;;;;;;0.30;0.30;;;;;;;8.27;100.00;100306.09;5030353;28;20120;-76
2023/11/02 03:15:46;;;;;;;0.22;0.22;;;;;;;8.51;100.00;100339.41;5033823;28;20113;-78
2023/11/02 03:18:13;;;;;;;2.13;1.98;;;;;;;8.46;100.00;100346.34;5035851;28;20124;-77
2023/11/02 03:20:41;;;;;;;0.35;0.35;;;;;;;8.32;100.00;100319.19;5032932;28;20017;-77
2023/11/02 03:23:12;;;;;;;0.63;0.55;;;;;;;8.53;100.00;100339.44;5032809;28;20045;-77
2023/11/02 03:25:49;;;;;;;1.13;1.02;;;;;;;8.64;100.00;100327.31;5013798;28;20042;-78
2023/11/02 03:28:36;;;;;;;4.22;1.88;;;;;;;8.63;100.00;100341.25;5013868;28;20037;-78
2023/11/02 03:31:02;;;;;;;0.30;0.30;;;;;;;8.87;100.00;100353.59;5018013;28;20103;-78
2023/11/02 03:33:37;;;;;;;1.52;1.23;;;;;;;9.02;100.00;100344.97;5023272;28;20086;-80
2023/11/02 03:40:00;;;;;;;0.25;0.25;;;;;;;8.59;100.00;100356.06;5043462;28;20090;-79
2023/11/02 03:43:17;;;;;;;0.30;0.30;;;;;;;8.58;100.00;100350.78;5068656;28;20064;-78
2023/11/02 03:46:08;;;;;;;;;;;;;;;8.42;100.00;100336.72;5046021;28;20036;-78
2023/11/02 03:48:37;;;;;;;0.20;0.20;;;;;;;8.46;100.00;100343.75;5053038;28;19913;-79
2023/11/02 03:51:24;;;;;;;0.40;0.40;;;;;;;8.37;100.00;100341.88;5035492;28;20029;-78
2023/11/02 03:54:31;;;;;;;3.10;2.72;;;;;;;7.77;100.00;100244.72;5035794;28;20090;-77
2023/11/02 03:57:17;;;;;;;0.28;0.28;;;;;;;8.37;100.00;100344.50;5018119;28;20049;-77
2023/11/02 04:10:25;;;;;;;0.40;0.40;;;;;;;8.20;100.00;100340.88;5050064;28;20114;-76
2023/11/02 04:13:18;;;;;;;0.30;0.30;;;;;;;8.15;100.00;100330.41;5046049;28;20051;-77
2023/11/02 04:15:44;;;;;;;2.93;2.83;;;;;;;7.27;100.00;100189.44;5072554;28;20041;-78
2023/11/02 04:18:10;;;;;;;0.60;0.50;;;;;;;7.85;100.00;100309.22;5063327;28;20027;-78
2023/11/02 04:20:39;;;;;;;0.30;0.30;;;;;;;8.07;100.00;100339.88;5050715;28;20059;-78
2023/11/02 04:23:04;;;;;;;0.43;0.43;;;;;;;7.50;100.00;100228.81;5039660;28;20048;-77
2023/11/02 04:25:30;;;;;;;0.85;0.85;;;;;;;7.96;100.00;100298.00;5035658;28;20045;-77
2023/11/02 04:27:57;;;;;;;0.30;0.30;;;;;;;8.09;100.00;100346.00;5033256;28;20044;-78
2023/11/02 04:30:24;;;;;;;0.55;0.55;;;;;;;7.96;100.00;100271.88;5028699;28;20452;-79
2023/11/02 04:33:21;;;;;;;0.30;0.30;;;;;;;8.29;100.00;100364.50;5046223;28;20072;-76
2023/11/02 04:35:47;;;;;;;0.32;0.32;;;;;;;8.29;100.00;100366.22;5050724;28;20485;-76
2023/11/02 04:38:12;;;;;;;0.40;0.40;;;;;;;7.68;100.00;100269.88;5053254;28;20040;-76
2023/11/02 04:40:41;;;;;;;2.50;2.40;;;;;;;8.11;100.00;100372.16;5046270;28;20576;-76
2023/11/02 04:43:07;;;;;;;0.30;0.30;;;;;;;8.10;100.00;100353.00;5020344;28;20033;-76
2023/11/02 04:45:39;;;;;;;0.28;0.28;;;;;;;8.28;100.00;100383.63;5031757;28;20037;-76
2023/11/02 04:48:06;;;;;;;0.63;0.60;;;;;;;7.70;100.00;100258.59;5028067;28;20363;-75
2023/11/02 04:50:38;;;;;;;0.60;0.60;;;;;;;7.57;100.00;100241.94;5025205;28;20067;-75
2023/11/02 04:53:28;;;;;;;0.43;0.43;;;;;;;8.53;100.00;100357.75;5046284;28;20191;-76
2023/11/02 04:59:29;;;;;;;2.40;2.25;;;;;;;8.51;100.00;100349.88;5026054;28;20172;-77
2023/11/02 05:02:06;;;;;;;0.30;0.30;;;;;;;8.62;100.00;100348.22;5030153;28;20061;-79
2023/11/02 05:04:32;;;;;;;0.45;0.45;;;;;;;8.55;100.00;100345.56;5029532;28;20049;-76
2023/11/02 05:07:01;;;;;;;1.95;1.73;;;;;;;8.53;100.00;100331.59;5032523;28;20469;-77
2023/11/02 05:09:26;;;;;;;0.30;0.30;;;;;;;8.52;100.00;100322.88;5029534;28;20034;-78
2023/11/02 05:11:52;;;;;;;0.20;0.20;;;;;;;7.58;100.00;100162.72;5027834;28;20022;-78
2023/11/02 05:14:17;;;;;;;2.97;2.85;;;;;;;8.68;100.00;100352.59;5033646;28;20033;-77
2023/11/02 05:16:46;;;;;;;0.73;0.73;;;;;;;8.68;100.00;100351.72;5006680;28;20037;-77
2023/11/02 05:19:12;;;;;;;0.93;0.93;;;;;;;8.78;100.00;100338.72;5031447;28;20045;-76
2023/11/02 05:21:37;;;;;;;2.70;2.60;;;;;;;8.11;100.00;100228.44;5031639;28;20052;-76
2023/11/02 05:24:03;;;;;;;8.30;7.85;;;;;;;8.73;100.00;100305.53;5037000;28;20418;-76
2023/11/02 05:26:29;;;;;;;0.68;0.68;;;;;;;8.68;100.00;100294.19;5030940;28;20318;-77
2023/11/02 05:28:54;;;;;;;0.28;0.28;;;;;;;9.15;100.00;100356.34;5033442;28;20394;-78
2023/11/02 05:31:21;;;;;;;1.60;1.50;;;;;;;9.33;100.00;100371.28;5029703;28;20176;-77
2023/11/02 05:33:46;;;;;;;0.30;0.30;;;;;;;9.22;100.00;100355.50;5010951;28;20072;-78
2023/11/02 05:36:12;;;;;;;0.95;0.95;;;;;;;9.37;100.00;100357.34;5009778;28;20025;-77
2023/11/02 05:38:37;;;;;;;0.68;0.68;;;;;;;9.04;100.00;100275.19;5026898;28;20523;-78
2023/11/02 05:41:03;;;;;;;0.80;0.80;;;;;;;8.96;100.00;100276.88;5038379;28;20152;-78
2023/11/02 05:43:29;;;;;;;2.95;2.85;;;;;;;9.40;100.00;100362.59;5031772;28;20051;-77
2023/11/02 05:45:54;;;;;;;1.17;1.17;;;;;;;8.63;100.00;100253.19;5037367;28;20041;-77
2023/11/02 05:48:21;;;;;;;0.30;0.30;;;;;;;9.03;100.00;100341.47;5047594;28;20388;-76
2023/11/02 05:50:47;;;;;;;1.50;1.33;;;;;;;9.25;100.00;100340.72;5032568;28;20039;-77
2023/11/02 05:56:43;;;;;;;0.28;0.28;;;;;;;9.46;100.00;100362.63;5049055;28;20073;-78
2023/11/02 06:02:32;;;;;;;0.20;0.20;;;;;;;9.21;100.00;100270.00;5053529;28;20041;-77
2023/11/02 06:04:57;;;;;;;1.02;0.98;;;;;;;9.79;100.00;100376.69;5023599;28;20450;-78
2023/11/02 06:07:23;;;;;;;0.50;0.50;;;;;;;9.71;100.00;100329.50;5046251;28;20123;-76
2023/11/02 06:09:48;;;;;;;3.83;3.17;;;;;;;9.55;100.00;100322.47;5034448;28;20434;-76
2023/11/02 06:25:51;;;;;;;4.65;2.45;;;;;;;10.26;100.00;100349.66;5050169;28;20032;-77
2023/11/02 06:28:19;;;;;;;0.20;0.20;;;;;;;9.68;100.00;100250.91;5048111;28;20056;-79
2023/11/02 06:30:44;;;;;;;0.20;0.20;;;;;;;9.78;100.00;100238.66;5045873;28;20477;-77
2023/11/02 06:33:18;;;;;;;0.68;0.68;;;;;;;9.64;100.00;100238.66;5050220;28;20035;-79
2023/11/02 06:35:44;;;;;;;1.27;1.20;;;;;;;9.84;100.00;100263.13;5048381;28;20450;-77
2023/11/02 06:38:09;;;;;;;0.40;0.40;;;;;;;9.75;100.00;100250.03;5049698;28;20049;-78
2023/11/02 06:40:34;;;;;;;1.73;1.58;;;;;;;9.69;100.00;100227.34;5047022;28;20610;-80
2023/11/02 06:43:26;;;;;;;0.20;0.20;;;;;;;10.46;100.00;100368.91;5037829;28;20044;-80
2023/11/02 06:45:52;;;;;;;2.83;2.63;;;;;;;10.63;100.00;100365.41;5025930;28;20036;-78
2023/11/02 06:48:18;;;;;;;0.98;0.93;;;;;;;10.29;100.00;100334.81;5020739;28;20064;-75
2023/11/02 06:50:46;;;;;;;0.35;0.35;;;;;;;10.30;100.00;100328.72;5030534;28;20025;-75
2023/11/02 06:53:12;;;;;;;0.20;0.20;;;;;;;9.93;100.00;100302.47;5030542;28;20041;-77
2023/11/02 06:55:40;;;;;;;0.52;0.52;;;;;;;10.13;100.00;100267.50;5021524;28;20049;-75
2023/11/02 06:58:05;;;;;;;1.08;1.08;;;;;;;9.55;100.00;100162.69;5012300;28;20054;-76
2023/11/02 07:00:30;;;;;;;1.98;1.77;;;;;;;10.54;100.00;100366.31;5005771;28;20516;-78
2023/11/02 07:02:56;;;;;;;4.95;1.85;;;;;;;9.82;100.00;100251.78;5018830;28;20037;-75
2023/11/02 07:05:23;;;;;;;2.95;2.85;;;;;;;10.37;100.00;100362.81;5012972;28;20025;-75
2023/11/02 07:07:49;;;;;;;0.20;0.20;;;;;;;10.48;100.00;100347.94;5030460;28;20212;-76
2023/11/02 07:10:30;;;;;;;3.58;3.03;;;;;;;10.40;100.00;100354.97;5032631;28;20037;-77
2023/11/02 07:12:56;;;;;;;2.08;1.88;;;;;;;10.40;100.00;100341.84;5023545;28;20371;-75
2023/11/02 07:15:23;;;;;;;0.30;0.30;;;;;;;9.81;100.00;100251.75;5030330;28;20063;-77
2023/11/02 07:21:10;;;;;;;0.30;0.20;;;;;;;10.46;100.00;100342.69;5020238;28;20041;-75
2023/11/02 07:23:38;;;;;;;17.83;9.40;;;;;;;10.07;100.00;100246.56;5016100;28;20454;-77
2023/11/02 07:26:03;;;;;;;1.95;1.77;;;;;;;10.25;100.00;100204.53;5017463;28;20029;-76
2023/11/02 07:32:05;;;;;;;0.30;0.30;;;;;;;10.58;100.00;100234.22;5036050;28;20073;-77
2023/11/02 07:34:31;;;;;;;4.72;2.00;;;;;;;11.12;100.00;100334.69;5033112;28;20116;-78
2023/11/02 07:36:57;;;;;;;4.60;3.85;;;;;;;10.78;100.00;100206.16;5031972;28;20117;-75
2023/11/02 07:39:23;;;;;;;0.20;0.20;;;;;;;11.39;100.00;100298.66;5029030;28;20157;-77
2023/11/02 07:41:49;;;;;;;4.35;2.15;;;;;;;11.43;100.00;100321.44;5027561;28;20420;-76
2023/11/02 07:44:15;;;;;;;1.63;1.48;;;;;;;10.87;100.00;100189.50;5025400;28;20045;-75
2023/11/02 07:46:41;;;;;;;0.30;0.30;;;;;;;11.71;100.00;100287.09;5024469;28;20033;-76
2023/11/02 07:49:06;;;;;;;0.20;0.20;;;;;;;11.66;100.00;100254.69;5026508;28;20508;-76
2023/11/02 07:51:33;;;;;;;1.55;1.38;;;;;;;11.42;100.00;100211.94;5023782;28;20038;-75
2023/11/02 07:53:58;;;;;;;4.38;2.20;;;;;;;11.65;100.00;100224.06;5025050;28;20501;-76
2023/11/02 07:56:25;;;;;;;2.67;2.47;;;;;;;11.54;100.00;100219.75;5023599;28;20061;-76
2023/11/02 07:58:51;;;;;;;1.05;1.05;;;;;;;12.14;100.00;100297.31;5009003;28;20037;-76
2023/11/02 08:01:25;;;;;;;3.90;2.63;;;;;;;12.36;100.00;100301.53;5025483;28;20064;-76
2023/11/02 08:03:51;;;;;;;0.95;0.70;;;;;;;12.44;100.00;100283.03;5030504;28;20045;-76
2023/11/02 08:06:16;;;;;;;2.17;1.98;;;;;;;12.01;100.00;100193.97;5027997;28;20083;-76
2023/11/02 08:08:44;;;;;;;1.85;1.70;;;;;;;12.16;100.00;100201.72;5017154;28;20030;-76
2023/11/02 08:11:10;;;;;;;0.30;0.30;;;;;;;12.35;100.00;100215.56;5029773;28;20041;-76
2023/11/02 08:13:35;;;;;;;2.40;2.20;;;;;;;12.82;100.00;100284.38;5031861;28;20382;-75
2023/11/02 08:16:01;;;;;;;2.55;1.95;;;;;;;12.88;100.00;100289.59;5030104;28;20037;-75
2023/11/02 08:25:09;;;;;;;0.57;0.50;;;;;;;12.12;100.00;100213.16;5031546;28;20052;-76
2023/11/02 08:27:36;;;;;;;0.93;0.80;;;;;;;12.82;100.00;100318.59;5032535;28;20466;-76
2023/11/02 08:30:02;;;;;;;1.35;1.25;;;;;;;12.91;100.00;100307.97;5032738;28;20369;-75
2023/11/02 08:32:27;;;;;;;4.18;1.90;;;;;;;12.35;100.00;100206.81;5011086;28;20472;-76
2023/11/02 08:34:54;;;;;;;0.93;0.88;;;;;;;11.76;100.00;100207.31;5006187;28;20038;-76
2023/11/02 08:37:19;;;;;;;2.10;1.83;;;;;;;12.54;100.00;100304.84;5028921;28;20086;-76
2023/11/02 08:39:44;;;;;;;1.10;1.02;;;;;;;12.02;100.00;100190.47;5021686;28;20579;-76
2023/11/02 08:42:10;;;;;;;1.50;1.02;;;;;;;12.19;100.00;100206.09;5024287;28;20516;-76
2023/11/02 08:44:42;;;;;;;6.45;3.63;;;;;;;12.50;100.00;100264.53;5031134;28;20460;-76
2023/11/02 08:47:07;;;;;;;5.90;2.70;;;;;;;12.44;100.00;100261.97;5028448;28;20050;-76
2023/11/02 08:49:37;;;;;;;1.10;0.75;;;;;;;12.23;100.00;100271.81;5023609;28;20684;-76
2023/11/02 08:52:41;;;;;;;3.38;2.03;;;;;;;12.72;100.00;100285.38;5026719;28;20067;-75
2023/11/02 08:55:07;;;;;;;2.42;1.45;;;;;;;12.93;100.00;100282.50;5023500;28;20948;-75
2023/11/02 08:57:35;;;;;;;3.90;1.42;;;;;;;12.54;100.00;100192.53;4992043;28;20037;-76
2023/11/02 09:00:28;;;;;;;3.20;2.55;;;;;;;13.15;100.00;100271.69;5028425;28;20445;-75
2023/11/02 09:03:29;;;;;;;0.73;0.65;;;;;;;13.41;100.00;100266.09;5030861;28;20021;-76
2023/11/02 09:05:54;;;;;;;2.42;1.60;;;;;;;12.96;100.00;100147.28;5007128;28;20429;-77
2023/11/02 09:08:20;;;;;;;1.00;0.93;;;;;;;13.56;100.00;100229.00;5025616;28;20045;-76
2023/11/02 09:10:45;;;;;;;1.08;0.98;;;;;;;13.46;100.00;100219.47;5024095;28;20046;-75
2023/11/02 09:13:11;;;;;;;1.98;1.50;;;;;;;13.45;100.00;100192.22;5025681;28;20029;-76
2023/11/02 09:15:37;;;;;;;3.53;2.63;;;;;;;13.70;100.00;100229.63;5027640;28;20461;-75
2023/11/02 09:18:02;;;;;;;2.65;1.52;;;;;;;13.32;100.00;100116.03;5029417;28;20025;-74
2023/11/02 09:20:28;;;;;;;0.65;0.65;;;;;;;13.28;100.00;100116.06;5025325;28;20044;-76
2023/11/02 09:22:56;;;;;;;11.98;2.20;;;;;;;14.18;100.00;100210.34;5024594;28;20541;-75
2023/11/02 09:25:21;;;;;;;0.85;0.77;;;;;;;14.23;100.00;100211.13;5025943;28;20061;-76
2023/11/02 09:27:48;;;;;;;2.58;1.70;;;;;;;14.01;100.00;100186.91;5025234;28;20127;-74
2023/11/02 09:30:14;;;;;;;2.28;2.05;;;;;;;13.82;100.00;100117.81;5030816;28;21081;-76
2023/11/02 09:32:40;;;;;;;4.95;2.90;;;;;;;14.26;100.00;100204.97;5022509;28;20028;-75
2023/11/02 09:35:06;;;;;;;1.65;1.17;;;;;;;13.89;100.00;100131.75;5023974;28;20037;-75
2023/11/02 09:37:31;;;;;;;2.95;1.85;;;;;;;14.02;100.00;100199.19;5028278;28;20041;-76
2023/11/02 09:39:57;;;;;;;1.38;1.10;;;;;;;14.05;100.00;100149.03;5026573;28;20048;-78
2023/11/02 09:42:22;;;;;;;2.50;2.17;;;;;;;14.34;100.00;100177.50;5030737;28;20385;-78
2023/11/02 09:44:48;;;;;;;1.55;1.00;;;;;;;14.68;100.00;100199.75;5025326;28;20393;-87
2023/11/02 09:47:14;;;;;;;2.65;1.75;;;;;;;14.05;100.00;100091.00;5031901;28;20083;-75
2023/11/02 09:49:40;;;;;;;2.13;1.75;;;;;;;14.54;100.00;100169.25;5030397;28;20049;-76
2023/11/02 09:52:16;;;;;;;1.80;1.58;;;;;;;14.27;100.00;100160.03;5027002;28;20449;-77
2023/11/02 09:54:41;;;;;;;1.90;1.75;;;;;;;14.24;100.00;100120.53;5019888;28;20041;-76
2023/11/02 09:57:07;;;;;;;1.58;1.48;;;;;;;14.73;100.00;100175.00;5031350;28;20124;-76
2023/11/02 09:59:33;;;;;;;1.65;1.55;;;;;;;14.76;100.00;100108.03;5011297;28;20469;-75
2023/11/02 10:02:01;;;;;;;3.83;2.60;;;;;;;14.59;100.00;100044.19;5027843;28;20075;-79
2023/11/02 10:04:27;;;;;;;4.60;2.85;;;;;;;14.95;100.00;100137.56;5030287;28;20370;-88
2023/11/02 10:06:52;;;;;;;4.18;1.75;;;;;;;14.86;100.00;100132.47;5028787;28;20040;-76
2023/11/02 10:09:19;;;;;;;1.10;0.90;;;;;;;14.41;100.00;100026.94;5027170;28;20045;-78
2023/11/02 10:11:45;;;;;;;1.80;1.67;;;;;;;14.70;100.00;100119.63;5028038;28;20109;-75
2023/11/02 10:14:11;;;;;;;2.10;1.95;;;;;;;14.46;100.00;100035.59;5030360;28;20042;-77
2023/11/02 10:16:36;;;;;;;1.20;1.10;;;;;;;14.22;100.00;100092.44;5008374;28;20793;-76
2023/11/02 10:19:19;;;;;;;3.60;1.38;;;;;;;14.07;100.00;100069.84;5014896;28;20038;-75
2023/11/02 10:21:53;;;;;;;2.83;2.30;;;;;;;14.38;100.00;100090.34;5021080;28;20076;-84
2023/11/02 10:24:31;;;;;;;12.57;1.77;;;;;;;14.46;100.00;100084.00;5021269;28;20161;-75
2023/11/02 10:26:57;;;;;;;0.73;0.73;;;;;;;14.63;100.00;100106.56;5017398;28;20029;-74
2023/11/02 10:29:24;;;;;;;1.02;0.75;;;;;;;14.09;100.00;100042.56;5022845;28;20031;-74
2023/11/02 10:31:53;;;;;;;0.77;0.77;;;;;;;14.79;100.00;100107.97;5014154;28;20033;-75
2023/11/02 10:34:21;;;;;;;1.27;1.20;;;;;;;14.26;100.00;100028.16;5008205;28;20065;-78
2023/11/02 10:36:47;;;;;;;1.30;0.98;;;;;;;14.17;100.00;99983.47;5025458;28;20033;-75
2023/11/02 10:39:18;;;;;;;1.48;1.27;;;;;;;13.86;100.00;100024.53;5027882;28;20021;-75
2023/11/02 10:41:55;;;;;;;0.68;0.68;;;;;;;14.76;100.00;100103.63;5031511;28;20045;-76
2023/11/02 10:44:26;;;;;;;5.88;2.03;;;;;;;13.47;100.00;99984.84;5019813;28;20120;-74
2023/11/02 10:46:59;;;;;;;3.30;2.40;;;;;;;13.96;100.00;100035.78;5028377;28;20072;-75
2023/11/02 10:49:37;;;;;;;7.93;1.63;;;;;;;14.11;100.00;99993.22;5026144;28;20053;-77
2023/11/02 10:52:38;;;;;;;1.42;1.27;;;;;;;14.43;100.00;100084.06;5026042;28;20037;-75
2023/11/02 10:58:24;;;;;;;3.47;3.22;;;;;;;14.07;100.00;100078.66;5030676;28;20041;-76
2023/11/02 11:00:52;;;;;;;1.42;1.33;;;;;;;14.00;100.00;100050.66;5007930;28;20121;-77
2023/11/02 11:03:19;;;;;;;1.58;1.48;;;;;;;14.16;100.00;100048.53;5008249;28;20080;-76
2023/11/02 11:05:46;;;;;;;1.63;1.35;;;;;;;14.13;100.00;100025.75;5026251;28;20028;-75
2023/11/02 11:08:12;;;;;;;3.28;2.67;;;;;;;13.79;100.00;99977.22;5025650;28;20049;-76
2023/11/02 11:10:38;;;;;;;8.25;1.70;;;;;;;14.61;100.00;100085.50;5023704;28;20046;-75
2023/11/02 11:13:09;;;;;;;3.97;2.90;;;;;;;13.99;100.00;99972.41;5022835;28;20045;-76
2023/11/02 11:15:36;;;;;;;5.93;2.28;;;;;;;13.98;100.00;99896.81;5022684;28;20452;-76
2023/11/02 11:18:06;;;;;;;1.33;1.02;;;;;;;15.10;100.00;100051.75;5021388;28;20026;-76
2023/11/02 11:20:32;;;;;;;2.78;2.42;;;;;;;14.36;100.00;99955.75;5030745;28;20464;-75
2023/11/02 11:22:58;;;;;;;1.30;0.98;;;;;;;14.87;100.00;100042.63;5023872;28;20073;-75
2023/11/02 11:25:23;;;;;;;2.78;2.20;;;;;;;14.54;100.00;100034.59;5004374;28;20040;-75
2023/11/02 11:28:32;;;;;;;2.42;2.22;;;;;;;14.73;100.00;100060.56;5026547;28;20041;-76
2023/11/02 11:31:02;;;;;;;0.50;0.50;;;;;;;14.46;100.00;100011.84;5019326;28;20072;-75
2023/11/02 11:40:44;;;;;;;1.15;1.05;;;;;;;14.85;100.00;100035.66;5031068;28;20048;-75
2023/11/02 11:43:15;;;;;;;2.65;1.75;;;;;;;14.63;100.00;99985.94;5035422;28;20037;-76
2023/11/02 11:45:46;;;;;;;1.45;1.17;;;;;;;14.41;100.00;99935.41;5016922;28;20068;-77
2023/11/02 11:48:32;;;;;;;2.47;2.28;;;;;;;14.92;100.00;100032.81;5030962;28;20068;-75
2023/11/02 11:50:58;;;;;;;1.17;1.08;;;;;;;14.05;100.00;99845.66;5028661;28;20059;-77
2023/11/02 11:53:25;;;;;;;2.10;1.90;;;;;;;14.93;100.00;100031.03;5015659;28;20434;-75
2023/11/02 11:55:54;;;;;;;1.65;1.38;;;;;;;14.95;100.00;100032.72;5009318;28;20088;-74
2023/11/02 11:58:35;;;;;;;3.08;2.25;;;;;;;14.94;100.00;100038.06;5026591;28;20172;-75
2023/11/02 12:01:03;;;;;;;2.25;2.05;;;;;;;15.12;100.00;100034.09;5006869;28;20046;-76
2023/11/02 12:03:34;;;;;;;2.08;1.35;;;;;;;15.31;100.00;100032.75;5026839;28;20068;-75
2023/11/02 12:06:02;;;;;;;4.68;2.40;;;;;;;14.79;100.00;99917.78;5008322;28;20357;-76
2023/11/02 12:08:28;;;;;;;3.50;2.00;;;;;;;14.60;100.00;99921.81;5028560;28;20036;-76
2023/11/02 12:10:57;;;;;;;1.40;1.30;;;;;;;15.04;100.00;99996.44;5017455;28;20041;-76
2023/11/02 12:13:24;;;;;;;4.53;3.45;;;;;;;15.13;100.00;100006.78;5022822;28;20065;-75
2023/11/02 12:15:51;;;;;;;1.45;1.13;;;;;;;14.59;100.00;99925.34;5007052;28;20033;-72
2023/11/02 12:18:20;;;;;;;2.53;1.95;;;;;;;15.43;100.00;100015.69;5028557;28;20044;-74
2023/11/02 12:20:46;;;;;;;1.98;1.38;;;;;;;15.39;100.00;99984.94;5033687;28;20017;-72
2023/11/02 12:23:13;;;;;;;2.80;2.40;;;;;;;15.43;100.00;99989.25;5028659;28;20043;-74
2023/11/02 12:25:54;;;;;;;1.92;1.45;;;;;;;15.73;100.00;100015.78;5029617;28;20087;-73
2023/11/02 12:35:12;;;;;;;2.25;1.48;;;;;;;14.75;100.00;99988.31;5028654;28;20107;-74
2023/11/02 12:41:02;;;;;;;4.47;2.53;;;;;;;15.38;100.00;99999.97;5027587;28;20045;-74
2023/11/02 12:43:28;;;;;;;2.03;1.85;;;;;;;15.15;100.00;100012.91;5047556;28;20128;-73
2023/11/02 12:46:00;;;;;;;1.60;1.10;;;;;;;14.32;100.00;99888.09;5040914;28;20066;-74
2023/11/02 12:48:37;;;;;;;0.73;0.70;;;;;;;14.36;100.00;99919.66;5043575;28;20053;-73
2023/11/02 12:51:27;;;;;;;1.48;1.38;;;;;;;15.03;100.00;99987.66;5043569;28;20466;-74
2023/11/02 12:53:52;;;;;;;5.40;4.57;;;;;;;14.84;100.00;99973.13;5044399;28;20552;-73
2023/11/02 12:56:25;;;;;;;1.63;1.35;;;;;;;14.34;100.00;99917.97;5044636;28;20121;-74
2023/11/02 12:59:05;;;;;;;1.37;0.97;;;;;;;14.56;100.00;99897.22;5049196;28;20043;-74
2023/11/02 13:02:03;;;;;;;7.78;2.70;;;;;;;14.83;100.00;99972.28;5043483;28;20886;-74
2023/11/02 13:05:03;;;;;;;7.72;1.58;;;;;;;14.90;100.00;99971.22;5046755;28;20374;-74
2023/11/02 13:08:09;;;;;;;1.30;0.95;;;;;;;15.06;100.00;99955.84;5047611;28;20436;-73
2023/11/02 13:10:42;;;;;;;1.30;1.15;;;;;;;14.70;100.00;99844.97;5044112;28;20063;-74
2023/11/02 13:13:07;;;;;;;2.50;2.30;;;;;;;15.22;100.00;99923.72;5047451;28;20348;-73
2023/11/02 13:15:33;;;;;;;1.88;1.77;;;;;;;15.11;100.00;99919.59;5053311;28;20029;-74
2023/11/02 13:18:07;;;;;;;0.73;0.65;;;;;;;15.27;100.00;99941.22;5053151;28;20032;-74
2023/11/02 13:20:32;;;;;;;3.03;2.38;;;;;;;15.09;100.00;99937.28;5030027;28;20032;-74
2023/11/02 13:22:58;;;;;;;1.02;0.93;;;;;;;14.77;100.00;99874.69;5052259;28;20499;-73
2023/11/02 13:25:23;;;;;;;1.55;1.30;;;;;;;14.77;100.00;99896.72;5054670;28;20530;-74
2023/11/02 13:27:50;;;;;;;4.10;2.65;;;;;;;14.78;100.00;99938.06;5049098;28;20124;-73
2023/11/02 13:30:16;;;;;;;1.95;1.60;;;;;;;14.94;100.00;99964.97;5047524;28;20429;-74